Time;durP1;ratioP1;P1;durP2;ratioP2;P2;SDS_P1;SDS_P2;PMS_P1;PMS_P2;Temp;Humidity;BMP_temperature;BMP_pressure;BME280_temperature;BME280_humidity;BME280_pressure;Samples;Min_cycle;Max_cycle;Signal;HPM_P1;HPM_P2
2022/03/07 00:00:35;;;;;;;;;;;;;;;;;;5093868;28;19951;-67
2022/03/07 00:03:01;;;;;;;;;;;;;;;;;;5093401;28;19943;-67
2022/03/07 00:05:26;;;;;;;;;;;;;;;;;;5094216;28;19908;-66
2022/03/07 00:07:53;;;;;;;;;;;;;;;;;;5093778;28;20276;-68
2022/03/07 00:10:18;;;;;;;;;;;;;;;;;;5093413;28;20360;-68
2022/03/07 00:12:44;;;;;;;;;;;;;;;;;;5093767;28;20143;-68
2022/03/07 00:15:10;;;;;;;;;;;;;;;;;;5092416;28;19943;-65
2022/03/07 00:17:36;;;;;;;;;;;;;;;;;;5093244;28;20356;-68
2022/03/07 00:20:02;;;;;;;;;;;;;;;;;;5092356;28;19908;-68
2022/03/07 00:22:28;;;;;;;;;;;;;;;;;;5093650;28;19915;-68
2022/03/07 00:24:54;;;;;;;;;;;;;;;;;;5091918;28;19908;-68
2022/03/07 00:27:20;;;;;;;;;;;;;;;;;;5092114;28;19935;-68
2022/03/07 00:29:46;;;;;;;;;;;;;;;;;;5093675;28;20372;-67
2022/03/07 00:32:12;;;;;;;;;;;;;;;;;;5091832;28;19912;-67
2022/03/07 00:34:38;;;;;;;;;;;;;;;;;;5093525;28;19934;-67
2022/03/07 00:37:05;;;;;;;;;;;;;;;;;;5093494;28;19962;-67
2022/03/07 00:39:31;;;;;;;;;;;;;;;;;;5093016;28;19908;-66
2022/03/07 00:41:57;;;;;;;;;;;;;;;;;;5093770;28;19934;-66
2022/03/07 00:44:23;;;;;;;;;;;;;;;;;;5095271;28;19908;-67
2022/03/07 00:46:49;;;;;;;;;;;;;;;;;;5097194;28;19908;-67
2022/03/07 00:49:15;;;;;;;;;;;;;;;;;;5095828;28;19919;-66
2022/03/07 00:51:41;;;;;;;;;;;;;;;;;;5096695;28;19908;-67
2022/03/07 00:54:07;;;;;;;;;;;;;;;;;;5097048;28;19908;-67
2022/03/07 00:56:33;;;;;;;;;;;;;;;;;;5095719;28;19916;-67
2022/03/07 00:58:59;;;;;;;;;;;;;;;;;;5095266;28;19930;-67
2022/03/07 01:01:25;;;;;;;;;;;;;;;;;;5095662;28;20416;-67
2022/03/07 01:03:51;;;;;;;;;;;;;;;;;;5096839;28;20384;-66
2022/03/07 01:06:17;;;;;;;;;;;;;;;;;;5095176;28;19912;-67
2022/03/07 01:08:43;;;;;;;;;;;;;;;;;;5096740;28;19908;-67
2022/03/07 01:11:09;;;;;;;;;;;;;;;;;;5097133;28;20310;-67
2022/03/07 01:13:35;;;;;;;;;;;;;;;;;;5095186;28;19908;-66
2022/03/07 01:16:01;;;;;;;;;;;;;;;;;;5095368;28;19908;-67
2022/03/07 01:18:27;;;;;;;;;;;;;;;;;;5096594;28;20012;-67
2022/03/07 01:20:52;;;;;;;;;;;;;;;;;;5096193;28;19908;-67
2022/03/07 01:23:18;;;;;;;;;;;;;;;;;;5096424;28;20372;-66
2022/03/07 01:25:44;;;;;;;;;;;;;;;;;;5095508;28;19915;-66
2022/03/07 01:28:10;;;;;;;;;;;;;;;;;;5095908;28;19920;-66
2022/03/07 01:30:36;;;;;;;;;;;;;;;;;;5096246;28;19916;-67
2022/03/07 01:33:02;;;;;;;;;;;;;;;;;;5095069;28;19962;-67
2022/03/07 01:35:29;;;;;;;;;;;;;;;;;;5094589;28;19908;-67
2022/03/07 01:37:55;;;;;;;;;;;;;;;;;;5096304;28;19912;-67
2022/03/07 01:40:21;;;;;;;;;;;;;;;;;;5096212;28;20379;-67
2022/03/07 01:42:47;;;;;;;;;;;;;;;;;;5095692;28;19915;-67
2022/03/07 01:45:13;;;;;;;;;;;;;;;;;;5096062;28;19961;-66
2022/03/07 01:47:39;;;;;;;;;;;;;;;;;;5095651;28;19908;-67
2022/03/07 01:50:05;;;;;;;;;;;;;;;;;;5096191;28;19920;-67
2022/03/07 01:52:31;;;;;;;;;;;;;;;;;;5096041;28;20360;-67
2022/03/07 01:54:57;;;;;;;;;;;;;;;;;;5093628;28;19923;-67
2022/03/07 01:57:23;;;;;;;;;;;;;;;;;;5095889;28;20343;-67
2022/03/07 01:59:49;;;;;;;;;;;;;;;;;;5095802;28;19953;-67
2022/03/07 02:02:15;;;;;;;;;;;;;;;;;;5095351;28;20295;-67
2022/03/07 02:04:41;;;;;;;;;;;;;;;;;;5094496;28;19916;-66
2022/03/07 02:07:07;;;;;;;;;;;;;;;;;;5095675;28;20372;-66
2022/03/07 02:09:33;;;;;;;;;;;;;;;;;;5095231;28;19993;-66
2022/03/07 02:11:59;;;;;;;;;;;;;;;;;;5095492;28;19954;-67
2022/03/07 02:14:25;;;;;;;;;;;;;;;;;;5094214;28;19912;-67
2022/03/07 02:16:51;;;;;;;;;;;;;;;;;;5095182;28;19931;-67
2022/03/07 02:19:17;;;;;;;;;;;;;;;;;;5094156;28;19938;-67
2022/03/07 02:21:43;;;;;;;;;;;;;;;;;;5094044;28;19908;-67
2022/03/07 02:24:09;;;;;;;;;;;;;;;;;;5093938;28;19908;-66
2022/03/07 02:26:35;;;;;;;;;;;;;;;;;;5095479;28;20452;-67
2022/03/07 02:29:01;;;;;;;;;;;;;;;;;;5095135;28;19965;-66
2022/03/07 02:31:29;;;;;;;;;;;;;;;;;;5093444;28;19916;-67
2022/03/07 02:33:55;;;;;;;;;;;;;;;;;;5095175;28;19912;-67
2022/03/07 02:36:21;;;;;;;;;;;;;;;;;;5095094;28;20375;-67
2022/03/07 02:38:47;;;;;;;;;;;;;;;;;;5093343;28;19915;-67
2022/03/07 02:41:13;;;;;;;;;;;;;;;;;;5095000;28;19908;-67
2022/03/07 02:43:39;;;;;;;;;;;;;;;;;;5093717;28;20044;-67
2022/03/07 02:46:05;;;;;;;;;;;;;;;;;;5093160;28;20351;-67
2022/03/07 02:48:31;;;;;;;;;;;;;;;;;;5095150;28;19994;-67
2022/03/07 02:50:58;;;;;;;;;;;;;;;;;;5094348;28;19916;-66
2022/03/07 02:53:24;;;;;;;;;;;;;;;;;;5095095;28;20331;-66
2022/03/07 02:55:50;;;;;;;;;;;;;;;;;;5094807;28;19931;-66
2022/03/07 02:58:16;;;;;;;;;;;;;;;;;;5093072;28;19912;-67
2022/03/07 03:00:42;;;;;;;;;;;;;;;;;;5094703;28;19963;-67
2022/03/07 03:03:08;;;;;;;;;;;;;;;;;;5094801;28;19915;-67
2022/03/07 03:05:34;;;;;;;;;;;;;;;;;;5092915;28;20364;-66
2022/03/07 03:08:00;;;;;;;;;;;;;;;;;;5093728;28;19943;-66
2022/03/07 03:10:26;;;;;;;;;;;;;;;;;;5093184;28;19962;-67
2022/03/07 03:12:52;;;;;;;;;;;;;;;;;;5092775;28;20368;-67
2022/03/07 03:15:18;;;;;;;;;;;;;;;;;;5094656;28;19908;-67
2022/03/07 03:17:44;;;;;;;;;;;;;;;;;;5094358;28;19915;-67
2022/03/07 03:20:13;;;;;;;;;;;;;;;;;;5092669;28;19909;-67
2022/03/07 03:22:39;;;;;;;;;;;;;;;;;;5094279;28;20386;-67
2022/03/07 03:25:05;;;;;;;;;;;;;;;;;;5093027;28;19928;-66
2022/03/07 03:27:31;;;;;;;;;;;;;;;;;;5093641;28;19927;-67
2022/03/07 03:29:57;;;;;;;;;;;;;;;;;;5094300;28;20007;-67
2022/03/07 03:32:24;;;;;;;;;;;;;;;;;;5094189;28;19934;-67
2022/03/07 03:34:50;;;;;;;;;;;;;;;;;;5093719;28;20322;-66
2022/03/07 03:37:16;;;;;;;;;;;;;;;;;;5094125;28;19912;-67
2022/03/07 03:39:42;;;;;;;;;;;;;;;;;;5092792;28;19930;-67
2022/03/07 03:42:08;;;;;;;;;;;;;;;;;;5093701;28;20384;-67
2022/03/07 03:44:33;;;;;;;;;;;;;;;;;;5094002;28;19911;-67
2022/03/07 03:46:59;;;;;;;;;;;;;;;;;;5092670;28;19912;-67
2022/03/07 03:49:25;;;;;;;;;;;;;;;;;;5093512;28;20410;-67
2022/03/07 03:51:51;;;;;;;;;;;;;;;;;;5093931;28;19918;-67
2022/03/07 03:54:17;;;;;;;;;;;;;;;;;;5092204;28;19978;-67
2022/03/07 03:56:43;;;;;;;;;;;;;;;;;;5092626;28;19912;-67
2022/03/07 03:59:09;;;;;;;;;;;;;;;;;;5093856;28;20368;-67
2022/03/07 04:01:35;;;;;;;;;;;;;;;;;;5093447;28;20368;-67
2022/03/07 04:04:01;;;;;;;;;;;;;;;;;;5093760;28;19915;-66
2022/03/07 04:06:27;;;;;;;;;;;;;;;;;;5093740;28;20257;-67
2022/03/07 04:08:53;;;;;;;;;;;;;;;;;;5092336;28;19952;-66
2022/03/07 04:11:21;;;;;;;;;;;;;;;;;;5093720;28;19916;-66
2022/03/07 04:13:46;;;;;;;;;;;;;;;;;;5093678;28;19953;-66
2022/03/07 04:16:12;;;;;;;;;;;;;;;;;;5093277;28;19908;-66
2022/03/07 04:18:38;;;;;;;;;;;;;;;;;;5094948;28;19950;-66
2022/03/07 04:21:04;;;;;;;;;;;;;;;;;;5097680;28;20002;-66
2022/03/07 04:23:31;;;;;;;;;;;;;;;;;;5097210;28;19912;-66
2022/03/07 04:25:57;;;;;;;;;;;;;;;;;;5096301;28;19948;-66
2022/03/07 04:28:23;;;;;;;;;;;;;;;;;;5097383;28;19920;-66
2022/03/07 04:30:49;;;;;;;;;;;;;;;;;;5095740;28;19916;-66
2022/03/07 04:33:15;;;;;;;;;;;;;;;;;;5096178;28;20269;-66
2022/03/07 04:35:41;;;;;;;;;;;;;;;;;;5096167;28;19915;-67
2022/03/07 04:38:07;;;;;;;;;;;;;;;;;;5095667;28;20009;-66
2022/03/07 04:40:33;;;;;;;;;;;;;;;;;;5097420;28;19993;-66
2022/03/07 04:43:01;;;;;;;;;;;;;;;;;;5097338;28;20371;-66
2022/03/07 04:45:27;;;;;;;;;;;;;;;;;;5095523;28;19908;-66
2022/03/07 04:47:53;;;;;;;;;;;;;;;;;;5097162;28;19914;-66
2022/03/07 04:50:19;;;;;;;;;;;;;;;;;;5097084;28;19916;-66
2022/03/07 04:52:45;;;;;;;;;;;;;;;;;;5095490;28;20029;-66
2022/03/07 04:55:11;;;;;;;;;;;;;;;;;;5097105;28;19908;-66
2022/03/07 04:57:37;;;;;;;;;;;;;;;;;;5095332;28;19916;-66
2022/03/07 05:00:03;;;;;;;;;;;;;;;;;;5095761;28;19908;-66
2022/03/07 05:02:29;;;;;;;;;;;;;;;;;;5096938;28;19915;-66
2022/03/07 05:04:54;;;;;;;;;;;;;;;;;;5096533;28;20280;-66
2022/03/07 05:07:20;;;;;;;;;;;;;;;;;;5095567;28;19908;-66
2022/03/07 05:09:46;;;;;;;;;;;;;;;;;;5097005;28;19969;-66
2022/03/07 05:12:12;;;;;;;;;;;;;;;;;;5096375;28;20291;-66
2022/03/07 05:14:38;;;;;;;;;;;;;;;;;;5096731;28;19908;-66
2022/03/07 05:17:04;;;;;;;;;;;;;;;;;;5097244;28;20013;-69
2022/03/07 05:19:30;;;;;;;;;;;;;;;;;;5094896;28;20276;-68
2022/03/07 05:21:56;;;;;;;;;;;;;;;;;;5096706;28;19908;-68
2022/03/07 05:24:22;;;;;;;;;;;;;;;;;;5096524;28;20375;-68
2022/03/07 05:26:48;;;;;;;;;;;;;;;;;;5096188;28;19908;-68
2022/03/07 05:29:15;;;;;;;;;;;;;;;;;;5096227;28;19950;-68
2022/03/07 05:31:41;;;;;;;;;;;;;;;;;;5094084;28;19924;-68
2022/03/07 05:34:07;;;;;;;;;;;;;;;;;;5094614;28;19909;-68
2022/03/07 05:36:33;;;;;;;;;;;;;;;;;;5095022;28;19931;-68
2022/03/07 05:38:59;;;;;;;;;;;;;;;;;;5096422;28;19912;-68
2022/03/07 05:41:25;;;;;;;;;;;;;;;;;;5094470;28;19908;-68
2022/03/07 05:43:51;;;;;;;;;;;;;;;;;;5096168;28;19908;-68
2022/03/07 05:46:16;;;;;;;;;;;;;;;;;;5096218;28;20318;-69
2022/03/07 05:48:42;;;;;;;;;;;;;;;;;;5094398;28;19954;-69
2022/03/07 05:51:08;;;;;;;;;;;;;;;;;;5094567;28;19916;-68
2022/03/07 05:53:34;;;;;;;;;;;;;;;;;;5096024;28;19916;-68
2022/03/07 05:56:00;;;;;;;;;;;;;;;;;;5095475;28;19931;-68
2022/03/07 05:58:26;;;;;;;;;;;;;;;;;;5095941;28;19908;-68
2022/03/07 06:00:52;;;;;;;;;;;;;;;;;;5094092;28;19912;-68
2022/03/07 06:03:18;;;;;;;;;;;;;;;;;;5095718;28;19977;-69
2022/03/07 06:05:44;;;;;;;;;;;;;;;;;;5091633;28;19908;-68
2022/03/07 06:08:10;;;;;;;;;;;;;;;;;;5091189;28;19909;-68
2022/03/07 06:10:36;;;;;;;;;;;;;;;;;;5094710;28;19923;-68
2022/03/07 06:13:02;;;;;;;;;;;;;;;;;;5094600;28;19908;-68
2022/03/07 06:15:28;;;;;;;;;;;;;;;;;;5094627;28;20341;-68
2022/03/07 06:17:54;;;;;;;;;;;;;;;;;;5095319;28;19993;-68
2022/03/07 06:20:20;;;;;;;;;;;;;;;;;;5093327;28;19908;-69
2022/03/07 06:22:46;;;;;;;;;;;;;;;;;;5092122;28;19908;-69
2022/03/07 06:25:12;;;;;;;;;;;;;;;;;;5109514;28;20562;-70
2022/03/07 06:27:38;;;;;;;;;;;;;;;;;;5094066;28;19920;-69
2022/03/07 06:30:04;;;;;;;;;;;;;;;;;;5093833;28;20022;-69
2022/03/07 06:32:30;;;;;;;;;;;;;;;;;;5089568;28;19912;-68
2022/03/07 06:34:56;;;;;;;;;;;;;;;;;;5091792;28;20319;-68
2022/03/07 06:37:23;;;;;;;;;;;;;;;;;;5073541;28;19918;-68
2022/03/07 06:39:49;;;;;;;;;;;;;;;;;;5072518;28;19978;-68
2022/03/07 06:42:15;;;;;;;;;;;;;;;;;;5072745;28;19912;-68
2022/03/07 06:44:41;;;;;;;;;;;;;;;;;;5073055;28;19909;-68
2022/03/07 06:47:07;;;;;;;;;;;;;;;;;;5073451;28;20419;-68
2022/03/07 06:49:33;;;;;;;;;;;;;;;;;;5073392;28;20004;-69
2022/03/07 06:51:59;;;;;;;;;;;;;;;;;;5073509;28;19915;-68
2022/03/07 06:54:25;;;;;;;;;;;;;;;;;;5073994;28;19924;-68
2022/03/07 06:56:51;;;;;;;;;;;;;;;;;;5074255;28;20387;-68
2022/03/07 06:59:17;;;;;;;;;;;;;;;;;;5073123;28;19913;-67
2022/03/07 07:01:43;;;;;;;;;;;;;;;;;;5092651;28;19915;-68
2022/03/07 07:04:09;;;;;;;;;;;;;;;;;;5092287;28;19909;-69
2022/03/07 07:06:35;;;;;;;;;;;;;;;;;;5092801;28;20420;-68
2022/03/07 07:09:01;;;;;;;;;;;;;;;;;;5093183;28;19991;-68
2022/03/07 07:11:27;;;;;;;;;;;;;;;;;;5093205;28;19916;-67
2022/03/07 07:13:53;;;;;;;;;;;;;;;;;;5093366;28;19908;-69
2022/03/07 07:16:19;;;;;;;;;;;;;;;;;;5093545;28;19952;-68
2022/03/07 07:18:45;;;;;;;;;;;;;;;;;;5093530;28;19942;-67
2022/03/07 07:21:11;;;;;;;;;;;;;;;;;;5092679;28;19915;-69
2022/03/07 07:23:37;;;;;;;;;;;;;;;;;;5090921;28;19912;-68
2022/03/07 07:26:03;;;;;;;;;;;;;;;;;;5093255;28;19909;-68
2022/03/07 07:28:29;;;;;;;;;;;;;;;;;;5093578;28;20398;-68
2022/03/07 07:30:55;;;;;;;;;;;;;;;;;;5093326;28;19920;-67
2022/03/07 07:33:21;;;;;;;;;;;;;;;;;;5093095;28;19912;-68
2022/03/07 07:35:47;;;;;;;;;;;;;;;;;;5093479;28;19961;-68
2022/03/07 07:38:13;;;;;;;;;;;;;;;;;;5091918;28;20338;-68
2022/03/07 07:40:39;;;;;;;;;;;;;;;;;;5092917;28;19908;-69
2022/03/07 07:43:05;;;;;;;;;;;;;;;;;;5093458;28;19952;-68
2022/03/07 07:45:31;;;;;;;;;;;;;;;;;;5092126;28;19998;-68
2022/03/07 07:48:01;;;;;;;;;;;;;;;;;;5089904;28;19969;-69
2022/03/07 07:50:26;;;;;;;;;;;;;;;;;;5093017;28;19916;-69
2022/03/07 07:52:53;;;;;;;;;;;;;;;;;;5092817;28;19950;-69
2022/03/07 07:55:19;;;;;;;;;;;;;;;;;;5091205;28;19970;-69
2022/03/07 07:57:45;;;;;;;;;;;;;;;;;;5091547;28;19912;-69
2022/03/07 08:00:11;;;;;;;;;;;;;;;;;;5093139;28;19915;-69
2022/03/07 08:02:37;;;;;;;;;;;;;;;;;;5091586;28;19908;-69
2022/03/07 08:05:03;;;;;;;;;;;;;;;;;;5093243;28;19931;-70
2022/03/07 08:07:29;;;;;;;;;;;;;;;;;;5092819;28;19908;-69
2022/03/07 08:09:55;;;;;;;;;;;;;;;;;;5092862;28;20472;-68
2022/03/07 08:12:21;;;;;;;;;;;;;;;;;;5092903;28;20368;-69
2022/03/07 08:14:47;;;;;;;;;;;;;;;;;;5091174;28;19912;-69
2022/03/07 08:17:13;;;;;;;;;;;;;;;;;;5093042;28;19908;-69
2022/03/07 08:19:39;;;;;;;;;;;;;;;;;;5093192;28;19977;-70
2022/03/07 08:22:05;;;;;;;;;;;;;;;;;;5092707;28;19915;-68
2022/03/07 08:24:31;;;;;;;;;;;;;;;;;;5093149;28;19953;-67
2022/03/07 08:26:57;;;;;;;;;;;;;;;;;;5093148;28;20360;-68
2022/03/07 08:29:23;;;;;;;;;;;;;;;;;;5091134;28;19927;-69
2022/03/07 08:31:49;;;;;;;;;;;;;;;;;;5091421;28;19916;-68
2022/03/07 08:34:15;;;;;;;;;;;;;;;;;;5091707;28;20376;-69
2022/03/07 08:36:41;;;;;;;;;;;;;;;;;;5091351;28;20001;-68
2022/03/07 08:39:07;;;;;;;;;;;;;;;;;;5092892;28;19909;-69
2022/03/07 08:41:34;;;;;;;;;;;;;;;;;;5092946;28;19915;-68
2022/03/07 08:44:00;;;;;;;;;;;;;;;;;;5091060;28;19917;-68
2022/03/07 08:46:26;;;;;;;;;;;;;;;;;;5089325;28;19909;-68
2022/03/07 08:48:52;;;;;;;;;;;;;;;;;;5091499;28;19915;-69
2022/03/07 08:51:18;;;;;;;;;;;;;;;;;;5090549;28;19916;-68
2022/03/07 08:53:44;;;;;;;;;;;;;;;;;;5090682;28;19908;-69
2022/03/07 08:56:10;;;;;;;;;;;;;;;;;;5091442;28;19951;-68
2022/03/07 08:58:36;;;;;;;;;;;;;;;;;;5103351;28;19948;-69
2022/03/07 09:01:02;;;;;;;;;;;;;;;;;;5091323;28;19915;-70
2022/03/07 09:03:28;;;;;;;;;;;;;;;;;;5092341;28;19908;-68
2022/03/07 09:05:54;;;;;;;;;;;;;;;;;;5092402;28;19908;-68
2022/03/07 09:08:20;;;;;;;;;;;;;;;;;;5093991;28;19970;-70
2022/03/07 09:10:46;;;;;;;;;;;;;;;;;;5093309;28;19916;-71
2022/03/07 09:13:12;;;;;;;;;;;;;;;;;;5094102;28;20280;-70
2022/03/07 09:15:39;;;;;;;;;;;;;;;;;;5092751;28;19915;-72
2022/03/07 09:18:05;;;;;;;;;;;;;;;;;;5083058;28;19999;-72
2022/03/07 09:20:31;;;;;;;;;;;;;;;;;;5093602;28;19912;-75
2022/03/07 09:22:57;;;;;;;;;;;;;;;;;;5093646;28;19916;-71
2022/03/07 09:25:23;;;;;;;;;;;;;;;;;;5093114;28;19908;-71
2022/03/07 09:27:50;;;;;;;;;;;;;;;;;;5092947;28;20020;-71
2022/03/07 09:30:16;;;;;;;;;;;;;;;;;;5092407;28;19920;-71
2022/03/07 09:32:42;;;;;;;;;;;;;;;;;;5086934;28;19994;-71
2022/03/07 09:35:08;;;;;;;;;;;;;;;;;;5055379;28;20566;-71
2022/03/07 09:37:34;;;;;;;;;;;;;;;;;;5072469;28;19908;-70
2022/03/07 09:40:00;;;;;;;;;;;;;;;;;;5054838;28;19916;-71
2022/03/07 09:42:26;;;;;;;;;;;;;;;;;;5052530;28;19959;-71
2022/03/07 09:44:52;;;;;;;;;;;;;;;;;;5071308;28;19943;-75
2022/03/07 09:47:18;;;;;;;;;;;;;;;;;;5052784;28;19912;-71
2022/03/07 09:49:44;;;;;;;;;;;;;;;;;;5071987;28;20321;-72
2022/03/07 09:52:10;;;;;;;;;;;;;;;;;;5054688;28;20004;-70
2022/03/07 09:54:37;;;;;;;;;;;;;;;;;;5072908;28;19974;-71
2022/03/07 09:57:03;;;;;;;;;;;;;;;;;;5073641;28;19915;-70
2022/03/07 09:59:32;;;;;;;;;;;;;;;;;;5056958;28;20011;-72
2022/03/07 10:01:59;;;;;;;;;;;;;;;;;;5074499;28;19909;-72
2022/03/07 10:04:25;;;;;;;;;;;;;;;;;;5056070;28;19913;-70
2022/03/07 10:06:51;;;;;;;;;;;;;;;;;;5056976;28;19958;-72
2022/03/07 10:09:17;;;;;;;;;;;;;;;;;;5056920;28;19923;-71
2022/03/07 10:11:43;;;;;;;;;;;;;;;;;;5074810;28;19916;-71
2022/03/07 10:14:09;;;;;;;;;;;;;;;;;;5056667;28;19943;-72
2022/03/07 10:16:35;;;;;;;;;;;;;;;;;;5074463;28;19913;-72
2022/03/07 10:19:01;;;;;;;;;;;;;;;;;;5074391;28;19908;-72
2022/03/07 10:21:27;;;;;;;;;;;;;;;;;;5056655;28;19944;-72
2022/03/07 10:23:53;;;;;;;;;;;;;;;;;;5075143;28;20380;-74
2022/03/07 10:26:19;;;;;;;;;;;;;;;;;;5056924;28;19909;-71
2022/03/07 10:28:45;;;;;;;;;;;;;;;;;;5063875;28;19931;-73
2022/03/07 10:31:11;;;;;;;;;;;;;;;;;;5074352;28;19923;-72
2022/03/07 10:33:37;;;;;;;;;;;;;;;;;;5078303;28;19947;-74
2022/03/07 10:36:03;;;;;;;;;;;;;;;;;;5093234;28;19908;-72
2022/03/07 10:38:29;;;;;;;;;;;;;;;;;;5094623;28;20363;-72
2022/03/07 10:40:55;;;;;;;;;;;;;;;;;;5091847;28;19924;-71
2022/03/07 10:43:21;;;;;;;;;;;;;;;;;;5086631;28;19961;-72
2022/03/07 10:45:47;;;;;;;;;;;;;;;;;;5091791;28;20361;-73
2022/03/07 10:48:13;;;;;;;;;;;;;;;;;;5090584;28;19919;-72
2022/03/07 10:50:39;;;;;;;;;;;;;;;;;;5091394;28;19916;-72
2022/03/07 10:53:04;;;;;;;;;;;;;;;;;;5091481;28;20146;-73
2022/03/07 10:55:30;;;;;;;;;;;;;;;;;;5091698;28;19908;-72
2022/03/07 10:57:56;;;;;;;;;;;;;;;;;;5091542;28;19908;-71
2022/03/07 11:00:23;;;;;;;;;;;;;;;;;;5094247;28;19915;-72
2022/03/07 11:02:49;;;;;;;;;;;;;;;;;;5093800;28;19931;-72
2022/03/07 11:05:15;;;;;;;;;;;;;;;;;;5092128;28;20429;-73
2022/03/07 11:07:41;;;;;;;;;;;;;;;;;;5093965;28;19909;-71
2022/03/07 11:10:08;;;;;;;;;;;;;;;;;;5092633;28;20288;-71
2022/03/07 11:12:34;;;;;;;;;;;;;;;;;;5090408;28;20405;-71
2022/03/07 11:15:06;;;;;;;;;;;;;;;;;;5091776;28;19994;-72
2022/03/07 11:17:32;;;;;;;;;;;;;;;;;;5091145;28;19912;-71
2022/03/07 11:19:58;;;;;;;;;;;;;;;;;;5091901;28;19999;-70
2022/03/07 11:22:24;;;;;;;;;;;;;;;;;;5089993;28;20105;-71
2022/03/07 11:24:50;;;;;;;;;;;;;;;;;;5090884;28;20225;-71
2022/03/07 11:27:17;;;;;;;;;;;;;;;;;;5091912;28;19964;-73
2022/03/07 11:29:43;;;;;;;;;;;;;;;;;;5074570;28;19912;-71
2022/03/07 11:32:09;;;;;;;;;;;;;;;;;;5093492;28;19908;-70
2022/03/07 11:34:35;;;;;;;;;;;;;;;;;;5093368;28;19908;-70
2022/03/07 11:37:01;;;;;;;;;;;;;;;;;;5074984;28;19912;-71
2022/03/07 11:39:27;;;;;;;;;;;;;;;;;;5093261;28;19912;-70
2022/03/07 11:41:53;;;;;;;;;;;;;;;;;;5075379;28;20372;-70
2022/03/07 11:46:25;;;;;;;;;;;;;;;;;;5090385;27;19912;-71
2022/03/07 11:50:01;;;;;;;;;;;;;;;;;;5132067;27;19916;-70
2022/03/07 11:52:27;;;;;;;;;;;;;;;;;;5131481;28;19964;-69
2022/03/07 11:54:53;;;;;;;;;;;;;;;;;;5130510;28;19908;-69
2022/03/07 11:57:19;;;;;;;;;;;;;;;;;;5130494;28;20679;-71
2022/03/07 11:59:45;;;;;;;;;;;;;;;;;;5130007;28;19908;-70
2022/03/07 12:02:11;;;;;;;;;;;;;;;;;;5131584;28;19919;-69
2022/03/07 12:04:37;;;;;;;;;;;;;;;;;;5131533;28;20419;-71
2022/03/07 12:09:26;;;;;;;;;;;;;;;;;;5111360;27;19917;-68
2022/03/07 12:12:43;;;;;;;;;;;;;;;;;;5111586;27;20414;-70
2022/03/07 12:16:52;;;;;;;;;;;;;;;;;;5111475;27;20391;-71
2022/03/07 12:19:59;;;;;;;;;;;;;;;;;;5090503;28;19919;-69
2022/03/07 12:23:43;;;;;;;;;;;;;;;;;;5090949;27;19917;-69
2022/03/07 12:26:09;;;;;;;;;;;;;;;;;;5090890;28;20326;-70
2022/03/07 12:28:35;;;;;;;;;;;;;;;;;;5090741;28;19961;-69
2022/03/07 12:32:19;;;;;;;;;;;;;;;;;;5111573;27;19923;-69
2022/03/07 12:39:32;;;;;;;;;;;;;;;;;;5111597;27;19916;-71
2022/03/07 12:43:08;;;;;;;;;;;;;;;;;;5110785;27;20328;-70
2022/03/07 12:45:47;;;;;;;;;;;;;;;;;;5111710;27;19923;-70
2022/03/07 12:48:13;;;;;;;;;;;;;;;;;;5110282;28;19911;-72
2022/03/07 12:51:46;;;;;;;;;;;;;;;;;;5111695;27;19916;-72
2022/03/07 12:55:23;;;;;;;;;;;;;;;;;;5111235;27;19920;-71
2022/03/07 12:57:49;;;;;;;;;;;;;;;;;;5111137;28;19918;-72
2022/03/07 13:00:15;;;;;;;;;;;;;;;;;;5110191;28;19994;-72
2022/03/07 13:02:41;;;;;;;;;;;;;;;;;;5110937;28;19991;-71
2022/03/07 13:05:07;;;;;;;;;;;;;;;;;;5111245;28;20337;-71
2022/03/07 13:07:33;;;;;;;;;;;;;;;;;;5111168;28;19912;-72
2022/03/07 13:09:59;;;;;;;;;;;;;;;;;;5110946;28;20582;-72
2022/03/07 13:12:25;;;;;;;;;;;;;;;;;;5109825;28;19961;-71
2022/03/07 13:14:52;;;;;;;;;;;;;;;;;;5110809;28;19916;-72
2022/03/07 13:17:19;;;;;;;;;;;;;;;;;;5110524;28;19959;-72
2022/03/07 13:19:46;;;;;;;;;;;;;;;;;;5111015;28;19953;-72
2022/03/07 13:23:57;;;;;;;;;;;;;;;;;;5090703;27;19912;-71
2022/03/07 13:26:25;;;;;;;;;;;;;;;;;;5090737;28;19919;-70
2022/03/07 13:28:51;;;;;;;;;;;;;;;;;;5089354;28;19909;-69
2022/03/07 13:31:17;;;;;;;;;;;;;;;;;;5090592;28;20368;-71
2022/03/07 13:33:43;;;;;;;;;;;;;;;;;;5090981;28;19915;-72
2022/03/07 13:36:10;;;;;;;;;;;;;;;;;;5090776;28;20003;-72
2022/03/07 13:38:36;;;;;;;;;;;;;;;;;;5090695;28;19923;-70
2022/03/07 13:42:26;;;;;;;;;;;;;;;;;;5131234;27;20010;-71
2022/03/07 13:44:52;;;;;;;;;;;;;;;;;;5131369;28;19962;-70
2022/03/07 13:47:18;;;;;;;;;;;;;;;;;;5131516;28;19943;-71
2022/03/07 13:49:44;;;;;;;;;;;;;;;;;;5131526;28;20010;-71
2022/03/07 13:54:10;;;;;;;;;;;;;;;;;;5090212;27;19920;-67
2022/03/07 14:00:22;;;;;;;;;;;;;;;;;;5090517;27;20295;-71
2022/03/07 14:02:48;;;;;;;;;;;;;;;;;;5090784;28;20385;-70
2022/03/07 14:06:55;;;;;;;;;;;;;;;;;;5110876;27;19918;-71
2022/03/07 14:10:23;;;;;;;;;;;;;;;;;;5111203;27;19926;-70
2022/03/07 14:12:49;;;;;;;;;;;;;;;;;;5111435;28;20265;-69
2022/03/07 14:15:15;;;;;;;;;;;;;;;;;;5110867;28;19908;-71
2022/03/07 14:17:41;;;;;;;;;;;;;;;;;;5110142;28;19915;-71
2022/03/07 14:20:07;;;;;;;;;;;;;;;;;;5110833;28;19912;-67
2022/03/07 14:22:33;;;;;;;;;;;;;;;;;;5110054;28;20322;-72
2022/03/07 14:24:59;;;;;;;;;;;;;;;;;;5111256;28;19914;-70
2022/03/07 14:27:25;;;;;;;;;;;;;;;;;;5110853;28;19907;-70
2022/03/07 14:29:51;;;;;;;;;;;;;;;;;;5111046;28;19916;-72
2022/03/07 14:32:17;;;;;;;;;;;;;;;;;;5111079;28;19908;-67
2022/03/07 14:39:15;;;;;;;;;;;;;;;;;;5173502;27;19998;-70
2022/03/07 14:41:41;;;;;;;;;;;;;;;;;;5173128;27;20409;-69
2022/03/07 14:44:07;;;;;;;;;;;;;;;;;;5154782;27;19907;-69
2022/03/07 14:48:00;;;;;;;;;;;;;;;;;;5111677;27;20269;-70
2022/03/07 14:50:26;;;;;;;;;;;;;;;;;;5111039;28;19912;-70
2022/03/07 14:52:52;;;;;;;;;;;;;;;;;;5111424;28;19912;-70
2022/03/07 14:55:18;;;;;;;;;;;;;;;;;;5109710;28;20002;-70
2022/03/07 14:57:44;;;;;;;;;;;;;;;;;;5111070;28;20395;-70
2022/03/07 15:00:10;;;;;;;;;;;;;;;;;;5109752;28;20007;-70
2022/03/07 15:02:36;;;;;;;;;;;;;;;;;;5108947;28;19955;-70
2022/03/07 15:05:02;;;;;;;;;;;;;;;;;;5107859;28;19969;-69
2022/03/07 15:07:28;;;;;;;;;;;;;;;;;;5109159;28;20281;-68
2022/03/07 15:09:54;;;;;;;;;;;;;;;;;;5120097;28;19912;-69
2022/03/07 15:12:20;;;;;;;;;;;;;;;;;;5126176;27;19938;-70
2022/03/07 15:14:50;;;;;;;;;;;;;;;;;;5109917;28;20265;-70
2022/03/07 15:17:19;;;;;;;;;;;;;;;;;;5109073;28;19915;-69
2022/03/07 15:19:46;;;;;;;;;;;;;;;;;;5108221;28;19908;-69
2022/03/07 15:22:12;;;;;;;;;;;;;;;;;;5109448;28;19915;-70
2022/03/07 15:24:38;;;;;;;;;;;;;;;;;;5108718;28;20002;-69
2022/03/07 15:27:04;;;;;;;;;;;;;;;;;;5110131;28;20049;-69
2022/03/07 15:29:31;;;;;;;;;;;;;;;;;;5108306;28;20376;-69
2022/03/07 15:31:58;;;;;;;;;;;;;;;;;;5110378;28;19913;-69
2022/03/07 15:34:24;;;;;;;;;;;;;;;;;;5109215;28;19957;-70
2022/03/07 15:36:50;;;;;;;;;;;;;;;;;;5110497;28;20000;-72
2022/03/07 15:39:16;;;;;;;;;;;;;;;;;;5110286;28;20287;-70
2022/03/07 15:41:42;;;;;;;;;;;;;;;;;;5112223;28;19916;-68
2022/03/07 15:44:08;;;;;;;;;;;;;;;;;;5110159;28;19908;-68
2022/03/07 15:46:35;;;;;;;;;;;;;;;;;;5107154;28;20425;-68
2022/03/07 15:49:01;;;;;;;;;;;;;;;;;;5110218;28;19908;-68
2022/03/07 15:51:27;;;;;;;;;;;;;;;;;;5108873;28;19995;-68
2022/03/07 15:53:53;;;;;;;;;;;;;;;;;;5110300;28;19939;-67
2022/03/07 15:56:19;;;;;;;;;;;;;;;;;;5108891;28;20287;-67
2022/03/07 15:58:47;;;;;;;;;;;;;;;;;;5099458;28;20219;-68
2022/03/07 16:01:13;;;;;;;;;;;;;;;;;;5095392;28;20351;-68
2022/03/07 16:03:39;;;;;;;;;;;;;;;;;;5095563;28;19940;-68
2022/03/07 16:06:05;;;;;;;;;;;;;;;;;;5095882;28;20000;-68
2022/03/07 16:08:31;;;;;;;;;;;;;;;;;;5095324;28;19912;-68
2022/03/07 16:10:57;;;;;;;;;;;;;;;;;;5094947;28;19999;-68
2022/03/07 16:13:24;;;;;;;;;;;;;;;;;;5096088;28;19908;-68
2022/03/07 16:15:50;;;;;;;;;;;;;;;;;;5102046;28;19919;-68
2022/03/07 16:18:16;;;;;;;;;;;;;;;;;;5095492;28;19908;-70
2022/03/07 16:20:42;;;;;;;;;;;;;;;;;;5095933;28;19934;-69
2022/03/07 16:23:16;;;;;;;;;;;;;;;;;;5096120;28;19908;-69
2022/03/07 16:25:42;;;;;;;;;;;;;;;;;;5094732;28;19958;-68
2022/03/07 16:28:08;;;;;;;;;;;;;;;;;;5094303;28;19912;-68
2022/03/07 16:30:34;;;;;;;;;;;;;;;;;;5094716;28;19912;-68
2022/03/07 16:33:00;;;;;;;;;;;;;;;;;;5085913;28;20372;-68
2022/03/07 16:35:26;;;;;;;;;;;;;;;;;;5089438;28;19915;-69
2022/03/07 16:37:52;;;;;;;;;;;;;;;;;;5095704;28;20261;-68
2022/03/07 16:40:18;;;;;;;;;;;;;;;;;;5095944;28;19934;-69
2022/03/07 16:42:44;;;;;;;;;;;;;;;;;;5095505;28;19915;-68
2022/03/07 16:45:10;;;;;;;;;;;;;;;;;;5094615;28;19908;-68
2022/03/07 16:47:36;;;;;;;;;;;;;;;;;;5094337;28;19935;-68
2022/03/07 16:50:02;;;;;;;;;;;;;;;;;;5094079;28;20060;-68
2022/03/07 16:52:28;;;;;;;;;;;;;;;;;;5094568;28;19909;-68
2022/03/07 16:54:54;;;;;;;;;;;;;;;;;;5094088;28;19962;-68
2022/03/07 16:57:20;;;;;;;;;;;;;;;;;;5095674;28;20352;-68
2022/03/07 16:59:46;;;;;;;;;;;;;;;;;;5095594;28;19912;-68
2022/03/07 17:02:12;;;;;;;;;;;;;;;;;;5095106;28;19954;-69
2022/03/07 17:04:38;;;;;;;;;;;;;;;;;;5095403;28;19908;-67
2022/03/07 17:07:04;;;;;;;;;;;;;;;;;;5093721;28;19923;-68
2022/03/07 17:09:30;;;;;;;;;;;;;;;;;;5092523;28;19955;-68
2022/03/07 17:11:56;;;;;;;;;;;;;;;;;;5094842;28;19908;-69
2022/03/07 17:14:22;;;;;;;;;;;;;;;;;;5095358;28;19997;-69